createdAt,value
2022-11-02T00:04:46.919Z,99.90
2022-11-02T00:09:49.207Z,99.90
2022-11-02T00:14:51.518Z,99.90
2022-11-02T00:19:53.860Z,99.90
2022-11-02T00:24:56.387Z,99.90
2022-11-02T00:30:01.846Z,99.90
2022-11-02T00:35:05.668Z,99.90
2022-11-02T00:40:08.549Z,99.90
2022-11-02T00:45:11.108Z,99.90
2022-11-02T00:50:13.383Z,99.90
2022-11-02T00:55:18.086Z,99.90
2022-11-02T01:00:20.762Z,99.90
2022-11-02T01:05:23.054Z,99.90
2022-11-02T01:10:26.256Z,99.90
2022-11-02T01:15:28.781Z,99.90
2022-11-02T01:20:31.299Z,99.90
2022-11-02T01:25:33.628Z,99.90
2022-11-02T01:30:38.666Z,99.90
2022-11-02T01:35:41.102Z,99.90
2022-11-02T01:40:43.581Z,99.90
2022-11-02T01:45:46.922Z,99.90
2022-11-02T01:50:49.942Z,99.90
2022-11-02T01:55:52.551Z,99.90
2022-11-02T02:00:55.390Z,99.90
2022-11-02T02:06:01.727Z,99.90
2022-11-02T02:11:23.643Z,99.90
2022-11-02T02:17:07.908Z,99.90
2022-11-02T02:22:30.361Z,99.90
2022-11-02T02:28:10.527Z,99.90
2022-11-02T02:33:23.447Z,99.90
2022-11-02T02:38:34.741Z,99.90
2022-11-02T02:43:54.954Z,99.90
2022-11-02T02:48:58.391Z,99.90
2022-11-02T02:54:13.804Z,99.90
2022-11-02T02:59:38.771Z,99.90
2022-11-02T03:04:41.817Z,99.90
2022-11-02T03:09:52.194Z,99.90
2022-11-02T03:15:11.271Z,99.90
2022-11-02T03:20:28.375Z,99.90
2022-11-02T03:25:45.585Z,99.90
2022-11-02T03:31:08.349Z,99.90
2022-11-02T03:36:26.267Z,99.90
2022-11-02T03:41:31.825Z,99.90
2022-11-02T03:46:38.632Z,99.90
2022-11-02T03:51:45.128Z,99.90
2022-11-02T03:56:53.426Z,99.90
2022-11-02T04:01:56.092Z,99.90
2022-11-02T04:06:59.340Z,99.90
2022-11-02T04:12:20.172Z,99.90
2022-11-02T04:17:41.831Z,99.90
2022-11-02T04:23:06.492Z,99.90
2022-11-02T04:28:09.906Z,99.90
2022-11-02T04:33:33.229Z,99.90
2022-11-02T04:38:44.968Z,99.90
2022-11-02T04:43:55.299Z,99.90
2022-11-02T04:48:57.996Z,99.90
2022-11-02T04:54:01.805Z,99.90
2022-11-02T04:59:04.887Z,99.90
2022-11-02T05:04:10.999Z,99.90
2022-11-02T05:09:14.638Z,99.90
2022-11-02T05:14:20.714Z,99.90
2022-11-02T05:19:23.208Z,99.90
2022-11-02T05:24:25.832Z,99.90
2022-11-02T05:29:28.445Z,99.90
2022-11-02T05:34:31.172Z,99.90
2022-11-02T05:39:35.579Z,99.90
2022-11-02T05:44:38.471Z,99.90
2022-11-02T05:49:40.970Z,99.90
2022-11-02T05:54:43.394Z,99.90
2022-11-02T05:59:49.185Z,99.90
2022-11-02T06:04:52.288Z,99.90
2022-11-02T06:09:54.754Z,99.90
2022-11-02T06:14:57.172Z,99.90
2022-11-02T06:19:59.594Z,99.90
2022-11-02T06:25:02.220Z,99.90
2022-11-02T06:30:06.145Z,99.90
2022-11-02T06:35:08.887Z,99.90
2022-11-02T06:40:12.457Z,99.90
2022-11-02T06:45:14.801Z,99.90
2022-11-02T06:50:17.203Z,99.90
2022-11-02T06:55:19.965Z,99.90
2022-11-02T07:00:24.069Z,99.90
2022-11-02T07:05:27.002Z,99.90
2022-11-02T07:10:30.282Z,99.90
2022-11-02T07:15:32.694Z,99.90
2022-11-02T07:20:35.542Z,99.90
2022-11-02T07:25:37.929Z,99.90
2022-11-02T07:30:40.374Z,99.90
2022-11-02T07:35:42.720Z,99.90
2022-11-02T07:40:49.747Z,99.90
2022-11-02T07:45:52.192Z,99.90
2022-11-02T07:50:56.903Z,99.90
2022-11-02T07:56:03.424Z,99.90
2022-11-02T08:01:06.096Z,99.90
2022-11-02T08:06:08.505Z,99.90
2022-11-02T08:11:11.092Z,99.90
2022-11-02T08:16:13.420Z,99.90
2022-11-02T08:21:16.019Z,99.90
2022-11-02T08:26:18.637Z,99.90
2022-11-02T08:31:20.908Z,99.90
2022-11-02T08:36:23.233Z,99.90
2022-11-02T08:41:28.133Z,99.90
2022-11-02T08:46:30.544Z,99.90
2022-11-02T08:51:32.873Z,99.90
2022-11-02T08:56:35.350Z,99.90
2022-11-02T09:01:39.219Z,99.90
2022-11-02T09:06:41.632Z,99.90
2022-11-02T09:11:44.410Z,99.90
2022-11-02T09:16:46.766Z,99.90
2022-11-02T09:21:51.450Z,99.90
2022-11-02T09:26:53.816Z,99.90
2022-11-02T09:31:56.267Z,99.90
2022-11-02T09:36:58.775Z,99.90
2022-11-02T09:42:26.972Z,99.90
2022-11-02T09:53:02.914Z,99.90
2022-11-02T09:58:17.121Z,99.90
2022-11-02T10:03:43.319Z,99.90
2022-11-02T10:08:48.564Z,99.90
2022-11-02T10:14:30.786Z,99.90
2022-11-02T10:19:36.505Z,99.90
2022-11-02T10:24:47.051Z,99.90
2022-11-02T10:30:03.457Z,99.40
2022-11-02T10:35:51.525Z,97.90
2022-11-02T10:41:16.587Z,97.30
2022-11-02T10:46:50.625Z,97.30
2022-11-02T10:51:53.045Z,96.10
2022-11-02T10:56:56.778Z,96.40
2022-11-02T11:01:59.352Z,96.30
2022-11-02T11:07:15.892Z,95.60
2022-11-02T11:12:23.326Z,95.20
2022-11-02T11:23:16.463Z,93.30
2022-11-02T11:28:31.407Z,92.40
2022-11-02T11:33:43.034Z,91.50
2022-11-02T11:38:48.234Z,90.50
2022-11-02T11:43:52.241Z,90.50
2022-11-02T11:48:59.236Z,91.00
2022-11-02T11:54:21.176Z,90.00
2022-11-02T11:59:45.080Z,89.90
2022-11-02T12:04:50.016Z,89.50
2022-11-02T12:10:20.175Z,89.90
2022-11-02T12:15:31.661Z,90.50
2022-11-02T12:20:53.774Z,90.40
2022-11-02T12:26:04.939Z,91.30
2022-11-02T12:31:23.344Z,91.30
2022-11-02T12:36:25.802Z,91.80
2022-11-02T12:41:52.852Z,91.60
2022-11-02T12:46:55.712Z,91.20
2022-11-02T12:52:41.031Z,91.50
2022-11-02T12:57:44.292Z,91.50
2022-11-02T13:03:14.980Z,91.40
2022-11-02T13:08:22.764Z,91.60
2022-11-02T13:13:56.249Z,92.00
2022-11-02T13:19:01.599Z,92.30
2022-11-02T13:24:06.382Z,92.50
2022-11-02T13:29:30.621Z,92.60
2022-11-02T13:34:40.495Z,92.80
2022-11-02T13:39:48.087Z,92.80
2022-11-02T13:44:53.668Z,92.00
2022-11-02T13:49:58.702Z,91.90
2022-11-02T13:55:03.440Z,92.10
2022-11-02T14:00:25.926Z,92.10
2022-11-02T14:05:31.998Z,91.50
2022-11-02T14:10:39.050Z,92.00
2022-11-02T14:15:42.982Z,91.70
2022-11-02T14:20:46.966Z,91.80
2022-11-02T14:25:54.924Z,92.00
2022-11-02T14:31:06.386Z,92.30
2022-11-02T14:36:10.973Z,92.00
2022-11-02T14:41:22.325Z,91.50
2022-11-02T14:46:36.659Z,91.30
2022-11-02T14:51:39.250Z,92.00
2022-11-02T14:57:05.789Z,92.40
2022-11-02T15:02:40.313Z,92.80
2022-11-02T15:07:50.437Z,93.20
2022-11-02T15:13:18.734Z,93.30
2022-11-02T15:18:31.699Z,93.40
2022-11-02T15:23:55.679Z,93.70
2022-11-02T15:29:02.677Z,94.40
2022-11-02T15:34:16.738Z,95.90
2022-11-02T15:39:19.910Z,96.80
2022-11-02T15:44:34.375Z,96.50
2022-11-02T15:49:54.664Z,96.40
2022-11-02T15:55:24.325Z,96.90
2022-11-02T16:00:32.768Z,97.50
2022-11-02T16:05:46.797Z,98.60
2022-11-02T16:10:49.438Z,99.10
2022-11-02T16:16:04.781Z,99.60
2022-11-02T16:21:10.941Z,99.90
2022-11-02T16:26:23.361Z,99.90
2022-11-02T16:31:31.297Z,99.90
2022-11-02T16:36:37.960Z,99.90
2022-11-02T16:41:41.250Z,99.90
2022-11-02T16:46:55.804Z,99.90
2022-11-02T16:52:19.430Z,99.90
2022-11-02T16:57:25.438Z,99.90
2022-11-02T17:02:42.520Z,99.90
2022-11-02T17:07:57.549Z,99.90
2022-11-02T17:13:01.474Z,99.90
2022-11-02T17:18:09.780Z,99.90
2022-11-02T17:23:32.510Z,99.90
2022-11-02T17:28:34.978Z,99.90
2022-11-02T17:33:37.984Z,99.90
2022-11-02T17:38:40.561Z,99.90
2022-11-02T17:43:42.939Z,99.90
2022-11-02T17:48:45.329Z,99.90
2022-11-02T17:53:49.778Z,99.90
2022-11-02T17:58:52.119Z,99.90
2022-11-02T18:03:54.536Z,99.90
2022-11-02T18:09:13.962Z,99.90
2022-11-02T18:14:17.130Z,99.90
2022-11-02T18:19:19.643Z,99.90
2022-11-02T18:24:22.027Z,99.90
2022-11-02T18:29:24.478Z,99.90
2022-11-02T18:34:27.270Z,99.90
2022-11-02T18:39:29.670Z,99.90
2022-11-02T18:44:32.096Z,99.90
2022-11-02T18:49:34.522Z,99.90
2022-11-02T18:54:36.950Z,99.90
2022-11-02T18:59:39.331Z,99.90
2022-11-02T19:04:41.747Z,99.90
2022-11-02T19:09:44.823Z,99.90
2022-11-02T19:14:51.409Z,99.90
2022-11-02T19:19:54.299Z,99.90
2022-11-02T19:24:56.667Z,99.90
2022-11-02T19:29:59.215Z,99.90
2022-11-02T19:35:01.880Z,99.90
2022-11-02T19:40:04.786Z,99.90
2022-11-02T19:45:07.567Z,99.90
2022-11-02T19:50:13.379Z,99.90
2022-11-02T19:55:17.358Z,99.90
2022-11-02T20:00:19.877Z,99.90
2022-11-02T20:05:22.444Z,99.90
2022-11-02T20:10:24.955Z,99.90
2022-11-02T20:15:27.511Z,99.90
2022-11-02T20:20:30.038Z,99.90
2022-11-02T20:25:32.610Z,99.90
2022-11-02T20:30:35.324Z,99.90
2022-11-02T20:35:39.393Z,99.90
2022-11-02T20:40:41.862Z,99.90
2022-11-02T20:45:44.869Z,99.90
2022-11-02T20:50:47.349Z,99.90
2022-11-02T20:55:50.002Z,99.90
2022-11-02T21:00:52.959Z,99.90
2022-11-02T21:05:56.628Z,99.90
2022-11-02T21:11:01.113Z,99.90
2022-11-02T21:16:04.232Z,99.90
2022-11-02T21:21:20.991Z,99.90
2022-11-02T21:26:23.541Z,99.90
2022-11-02T21:31:26.094Z,99.90
2022-11-02T21:36:29.209Z,99.90
2022-11-02T21:41:36.705Z,99.90
2022-11-02T21:46:39.249Z,99.90
2022-11-02T21:51:43.027Z,99.90
2022-11-02T21:56:46.435Z,99.90
2022-11-02T22:01:49.795Z,99.90
2022-11-02T22:06:52.745Z,99.90
2022-11-02T22:12:14.870Z,99.90
2022-11-02T22:17:35.750Z,99.90
2022-11-02T22:22:40.052Z,99.90
2022-11-02T22:27:42.590Z,99.90
2022-11-02T22:32:45.202Z,99.90
2022-11-02T22:38:06.476Z,99.90
2022-11-02T22:43:09.294Z,99.90
2022-11-02T22:48:12.113Z,99.90
2022-11-02T22:53:14.693Z,99.90
2022-11-02T22:58:19.673Z,99.90
2022-11-02T23:03:22.273Z,99.90
2022-11-02T23:08:24.795Z,99.90
2022-11-02T23:13:27.469Z,99.90
2022-11-02T23:18:49.922Z,99.90
2022-11-02T23:24:10.899Z,99.90
2022-11-02T23:29:32.176Z,99.90
2022-11-02T23:34:34.703Z,99.90
2022-11-02T23:39:49.475Z,99.90
2022-11-02T23:44:52.217Z,99.90
2022-11-02T23:49:54.774Z,99.90
2022-11-02T23:55:35.448Z,99.90
